Time;durP1;ratioP1;P1;durP2;ratioP2;P2;SDS_P1;SDS_P2;PMS_P1;PMS_P2;Temp;Humidity;BMP_temperature;BMP_pressure;BME280_temperature;BME280_humidity;BME280_pressure;Samples;Min_cycle;Max_cycle;Signal;HPM_P1;HPM_P2
2023/12/29 00:01:34;;;;;;;15.00;4.55;;;9.80;99.90;;;;;;5029992;28;20036;-62
2023/12/29 00:04:00;;;;;;;19.40;5.07;;;9.80;99.90;;;;;;5030858;28;20451;-62
2023/12/29 00:06:26;;;;;;;20.70;4.95;;;9.80;99.90;;;;;;5030696;28;20104;-62
2023/12/29 00:08:52;;;;;;;14.35;4.85;;;9.90;99.90;;;;;;5030254;28;20148;-62
2023/12/29 00:11:21;;;;;;;17.60;5.35;;;9.90;99.90;;;;;;5031036;28;20112;-62
2023/12/29 00:13:47;;;;;;;17.42;5.20;;;9.90;99.90;;;;;;5014468;28;20107;-62
2023/12/29 00:16:13;;;;;;;19.48;5.57;;;9.90;99.90;;;;;;5030370;28;20475;-62
2023/12/29 00:18:39;;;;;;;20.63;5.95;;;9.90;99.90;;;;;;5030611;28;20128;-62
2023/12/29 00:21:05;;;;;;;18.27;6.18;;;9.90;99.90;;;;;;5029992;28;20049;-62
2023/12/29 00:23:31;;;;;;;21.63;5.55;;;9.90;99.90;;;;;;5031218;28;20124;-62
2023/12/29 00:25:57;;;;;;;18.00;5.75;;;9.90;99.90;;;;;;5015175;28;20534;-62
2023/12/29 00:28:22;;;;;;;15.45;4.55;;;9.90;99.90;;;;;;5029923;28;20074;-62
2023/12/29 00:30:48;;;;;;;23.90;4.95;;;9.90;99.90;;;;;;5030477;28;20117;-62
2023/12/29 00:33:14;;;;;;;13.10;5.05;;;9.90;99.90;;;;;;5030685;28;20037;-62
2023/12/29 00:35:39;;;;;;;17.90;4.88;;;9.90;99.90;;;;;;5030118;28;20049;-62
2023/12/29 00:38:06;;;;;;;14.73;4.32;;;9.90;99.90;;;;;;5031265;28;20045;-62
2023/12/29 00:40:35;;;;;;;16.17;4.50;;;9.90;99.90;;;;;;5013889;28;20059;-62
2023/12/29 00:43:01;;;;;;;14.30;4.72;;;9.80;99.90;;;;;;5031482;28;20124;-62
2023/12/29 00:45:32;;;;;;;15.70;5.72;;;9.80;99.90;;;;;;5029154;28;20041;-62
2023/12/29 00:47:58;;;;;;;18.38;4.70;;;9.80;99.90;;;;;;5011253;28;20038;-62
2023/12/29 00:50:24;;;;;;;16.20;4.80;;;9.80;99.90;;;;;;5020444;28;20125;-62
2023/12/29 00:52:50;;;;;;;18.40;4.20;;;9.80;99.90;;;;;;5030445;28;20565;-62
2023/12/29 00:55:15;;;;;;;21.70;4.53;;;9.80;99.90;;;;;;5030474;28;20046;-62
2023/12/29 00:57:41;;;;;;;15.52;4.88;;;9.90;99.90;;;;;;5029531;28;20128;-62
2023/12/29 01:00:10;;;;;;;22.20;4.90;;;9.90;99.90;;;;;;5030374;28;20133;-62
2023/12/29 01:02:36;;;;;;;14.35;4.43;;;9.90;99.90;;;;;;5029028;28;20050;-62
2023/12/29 01:05:02;;;;;;;19.00;5.03;;;9.90;99.90;;;;;;4996671;28;20372;-62
2023/12/29 01:07:27;;;;;;;18.73;5.90;;;9.90;99.90;;;;;;5030534;28;20041;-62
2023/12/29 01:09:53;;;;;;;17.85;4.80;;;9.90;99.90;;;;;;5030479;28;20030;-62
2023/12/29 01:12:19;;;;;;;21.15;4.88;;;9.90;99.90;;;;;;5016371;28;20255;-62
2023/12/29 01:14:44;;;;;;;11.90;4.25;;;9.90;99.90;;;;;;5001141;28;20459;-62
2023/12/29 01:17:10;;;;;;;17.90;4.32;;;9.80;99.90;;;;;;5017991;28;20445;-62
2023/12/29 01:19:36;;;;;;;19.55;4.68;;;9.80;99.90;;;;;;4998055;28;20096;-62
2023/12/29 01:22:01;;;;;;;14.00;4.55;;;9.90;99.90;;;;;;5014226;28;20042;-62
2023/12/29 01:24:27;;;;;;;20.60;4.78;;;9.90;99.90;;;;;;5029878;28;20144;-62
2023/12/29 01:26:52;;;;;;;29.83;4.93;;;9.90;99.90;;;;;;5013740;28;20427;-62
2023/12/29 01:29:18;;;;;;;19.88;4.80;;;9.90;99.90;;;;;;5019770;28;20044;-62
2023/12/29 01:31:44;;;;;;;15.15;5.00;;;9.80;99.90;;;;;;5033839;28;20037;-62
2023/12/29 01:34:09;;;;;;;15.20;5.50;;;9.80;99.90;;;;;;5000734;28;20042;-62
2023/12/29 01:36:35;;;;;;;13.50;4.35;;;9.80;99.90;;;;;;5016927;28;20091;-62
2023/12/29 01:39:02;;;;;;;13.30;3.88;;;9.80;99.90;;;;;;5016134;28;20430;-62
2023/12/29 01:41:29;;;;;;;19.40;4.50;;;9.80;99.90;;;;;;5017016;28;20064;-62
2023/12/29 01:43:57;;;;;;;15.82;4.70;;;9.80;99.90;;;;;;5016995;28;20056;-62
2023/12/29 01:46:29;;;;;;;21.33;4.63;;;9.80;99.90;;;;;;4999429;28;20068;-61
2023/12/29 01:48:55;;;;;;;18.70;6.57;;;9.80;99.90;;;;;;5017394;28;20041;-62
2023/12/29 01:51:23;;;;;;;15.32;5.47;;;9.80;99.90;;;;;;5016133;28;20068;-61
2023/12/29 01:53:51;;;;;;;15.82;5.18;;;9.80;99.90;;;;;;4996338;28;20057;-62
2023/12/29 01:56:17;;;;;;;26.45;5.35;;;9.80;99.90;;;;;;5006244;28;20525;-61
2023/12/29 01:58:44;;;;;;;16.90;4.88;;;9.70;99.90;;;;;;4980569;28;20048;-62
2023/12/29 02:01:10;;;;;;;14.10;4.07;;;9.70;99.90;;;;;;4996384;28;20060;-62
2023/12/29 02:03:36;;;;;;;17.20;4.55;;;9.70;99.90;;;;;;5009028;28;20497;-62
2023/12/29 02:06:03;;;;;;;16.38;4.70;;;9.70;99.90;;;;;;5016447;28;20057;-62
2023/12/29 02:08:29;;;;;;;12.88;3.83;;;9.70;99.90;;;;;;5016075;28;20040;-62
2023/12/29 02:10:55;;;;;;;17.55;4.70;;;9.70;99.90;;;;;;5033057;28;20037;-61
2023/12/29 02:13:22;;;;;;;13.18;3.17;;;9.70;99.90;;;;;;5032313;28;20049;-62
2023/12/29 02:15:52;;;;;;;14.15;3.92;;;9.70;99.90;;;;;;5020716;28;20436;-62
2023/12/29 02:18:20;;;;;;;13.30;3.22;;;9.60;99.90;;;;;;5036561;28;20491;-62
2023/12/29 02:20:46;;;;;;;14.98;3.55;;;9.60;99.90;;;;;;5015823;28;20041;-62
2023/12/29 02:23:11;;;;;;;13.68;4.07;;;9.60;99.90;;;;;;5015721;28;20551;-62
2023/12/29 02:25:37;;;;;;;14.93;5.00;;;9.70;99.90;;;;;;5016267;28;20505;-62
2023/12/29 02:28:19;;;;;;;14.90;5.32;;;9.70;99.90;;;;;;5015739;28;20528;-62
2023/12/29 02:30:48;;;;;;;18.30;4.32;;;9.70;99.90;;;;;;5015824;28;20045;-62
2023/12/29 02:33:20;;;;;;;20.02;5.40;;;9.80;99.90;;;;;;5016468;28;20041;-62
2023/12/29 02:35:49;;;;;;;21.48;6.15;;;9.70;99.90;;;;;;5015335;28;20053;-62
2023/12/29 02:38:15;;;;;;;16.52;4.72;;;9.70;99.90;;;;;;5017477;28;20060;-61
2023/12/29 02:40:41;;;;;;;23.77;4.90;;;9.80;99.90;;;;;;5033614;28;20033;-62
2023/12/29 02:43:09;;;;;;;20.52;5.65;;;9.80;99.90;;;;;;5015221;28;20051;-62
2023/12/29 02:45:34;;;;;;;16.52;5.07;;;9.80;99.90;;;;;;5015617;28;20495;-62
2023/12/29 02:48:00;;;;;;;20.63;5.65;;;9.80;99.90;;;;;;5033592;28;20095;-61
2023/12/29 02:50:26;;;;;;;25.52;5.80;;;9.80;99.90;;;;;;5027819;28;20056;-62
2023/12/29 02:52:52;;;;;;;19.35;4.93;;;9.70;99.90;;;;;;5053604;28;20516;-61
2023/12/29 02:55:17;;;;;;;19.88;5.57;;;9.70;99.90;;;;;;5051791;28;20440;-61
2023/12/29 02:57:43;;;;;;;23.27;6.25;;;9.70;99.90;;;;;;5035147;28;20047;-62
2023/12/29 03:00:09;;;;;;;20.02;5.75;;;9.70;99.90;;;;;;5051518;28;20432;-62
2023/12/29 03:02:35;;;;;;;19.05;5.32;;;9.70;99.90;;;;;;5046863;28;20110;-62
2023/12/29 03:05:01;;;;;;;18.95;5.10;;;9.70;99.90;;;;;;5015675;28;20458;-62
2023/12/29 03:07:27;;;;;;;26.50;7.05;;;9.70;99.90;;;;;;5015475;28;20542;-62
2023/12/29 03:09:53;;;;;;;22.17;4.85;;;9.60;99.90;;;;;;5014412;28;20044;-62
2023/12/29 03:12:19;;;;;;;27.08;6.88;;;9.60;99.90;;;;;;5015245;28;20045;-62
2023/12/29 03:14:46;;;;;;;27.85;6.25;;;9.60;99.90;;;;;;4998951;28;20419;-62
2023/12/29 03:17:12;;;;;;;22.95;5.65;;;9.50;99.90;;;;;;4998509;28;20049;-63
2023/12/29 03:19:38;;;;;;;15.68;5.97;;;9.60;99.90;;;;;;5013439;28;20049;-62
2023/12/29 03:22:04;;;;;;;24.25;6.10;;;9.60;99.90;;;;;;4979840;28;20376;-62
2023/12/29 03:24:30;;;;;;;16.73;6.20;;;9.50;99.90;;;;;;4996315;28;20042;-62
2023/12/29 03:26:56;;;;;;;15.73;4.38;;;9.60;99.90;;;;;;5015166;28;20128;-62
2023/12/29 03:29:22;;;;;;;26.33;7.05;;;9.60;99.90;;;;;;5015080;28;20128;-64
2023/12/29 03:31:47;;;;;;;16.95;5.72;;;9.70;99.90;;;;;;5014043;28;20037;-62
2023/12/29 03:34:13;;;;;;;18.90;5.18;;;9.70;99.90;;;;;;5014744;28;20095;-62
2023/12/29 03:36:39;;;;;;;18.88;5.60;;;9.60;99.90;;;;;;5014647;28;20105;-61
2023/12/29 03:39:05;;;;;;;15.13;5.07;;;9.60;99.90;;;;;;4998103;28;20112;-61
2023/12/29 03:41:30;;;;;;;19.73;4.72;;;9.60;99.90;;;;;;5014290;28;20041;-61
2023/12/29 03:43:56;;;;;;;16.42;4.60;;;9.60;99.90;;;;;;5015190;28;20073;-62
2023/12/29 03:46:22;;;;;;;19.58;6.15;;;9.60;99.90;;;;;;5004762;28;20037;-61
2023/12/29 03:48:48;;;;;;;17.52;3.95;;;9.60;99.90;;;;;;5011791;28;20132;-62
2023/12/29 03:51:15;;;;;;;19.63;5.90;;;9.60;99.90;;;;;;5027095;28;20192;-62
2023/12/29 03:53:41;;;;;;;18.30;5.00;;;9.50;99.90;;;;;;5014277;28;20566;-61
2023/12/29 03:56:08;;;;;;;14.85;4.57;;;9.50;99.90;;;;;;5014833;28;20049;-61
2023/12/29 03:58:35;;;;;;;20.52;4.82;;;9.50;99.90;;;;;;5014216;28;20125;-62
2023/12/29 04:01:01;;;;;;;24.55;4.82;;;9.40;99.90;;;;;;5015371;28;20095;-62
2023/12/29 04:03:27;;;;;;;16.25;4.28;;;9.50;99.90;;;;;;5025538;28;20513;-61
2023/12/29 04:05:53;;;;;;;20.02;4.60;;;9.40;99.90;;;;;;5033380;28;20040;-62
2023/12/29 04:08:19;;;;;;;12.23;4.18;;;9.40;99.90;;;;;;5017490;28;20550;-62
2023/12/29 04:10:44;;;;;;;17.48;4.80;;;9.50;99.90;;;;;;5033792;28;20037;-62
2023/12/29 04:13:10;;;;;;;19.83;4.32;;;9.40;99.90;;;;;;5033488;28;20041;-62
2023/12/29 04:15:35;;;;;;;18.60;5.57;;;9.40;99.90;;;;;;5015154;28;20529;-61
2023/12/29 04:18:01;;;;;;;12.77;3.78;;;9.40;99.90;;;;;;5014611;28;20045;-62
2023/12/29 04:20:27;;;;;;;15.40;4.97;;;9.40;99.90;;;;;;5013970;28;20526;-62
2023/12/29 04:22:52;;;;;;;17.63;5.70;;;9.30;99.90;;;;;;5030741;28;20410;-62
2023/12/29 04:25:18;;;;;;;12.98;4.15;;;9.30;99.90;;;;;;5013875;28;20410;-62
2023/12/29 04:27:44;;;;;;;18.20;5.25;;;9.40;99.90;;;;;;5013454;28;20041;-62
2023/12/29 04:30:10;;;;;;;16.40;5.32;;;9.30;99.90;;;;;;5030913;28;20037;-62
2023/12/29 04:32:36;;;;;;;14.65;4.07;;;9.30;99.90;;;;;;5030650;28;20153;-62
2023/12/29 04:35:01;;;;;;;16.05;4.13;;;9.30;99.90;;;;;;5029944;28;20041;-62
2023/12/29 04:37:27;;;;;;;15.75;4.07;;;9.30;99.90;;;;;;5031748;28;20037;-62
2023/12/29 04:39:53;;;;;;;21.67;4.63;;;9.20;99.90;;;;;;5031694;28;20065;-62
2023/12/29 04:42:18;;;;;;;16.52;4.45;;;9.20;99.90;;;;;;5029626;28;20033;-62
2023/12/29 04:44:44;;;;;;;20.85;5.82;;;9.20;99.90;;;;;;5013881;28;20049;-62
2023/12/29 04:47:10;;;;;;;19.92;5.07;;;9.20;99.90;;;;;;5003849;28;20051;-62
2023/12/29 04:49:35;;;;;;;13.68;4.18;;;9.20;99.90;;;;;;5016966;28;20045;-62
2023/12/29 04:52:01;;;;;;;11.40;4.55;;;9.20;99.90;;;;;;5037996;28;20099;-62
2023/12/29 04:54:27;;;;;;;13.70;3.55;;;9.20;99.90;;;;;;5037425;28;20593;-62
2023/12/29 04:56:53;;;;;;;19.67;5.53;;;9.30;99.90;;;;;;5054595;28;20047;-62
2023/12/29 04:59:19;;;;;;;16.02;5.18;;;9.20;99.90;;;;;;5053867;28;20041;-61
2023/12/29 05:01:44;;;;;;;17.70;4.43;;;9.20;99.90;;;;;;5037486;28;20178;-62
2023/12/29 05:04:10;;;;;;;19.70;4.38;;;9.20;99.90;;;;;;5019566;28;20055;-61
2023/12/29 05:06:36;;;;;;;21.83;5.65;;;9.30;99.90;;;;;;5017391;28;20077;-61
2023/12/29 05:09:02;;;;;;;12.30;4.28;;;9.30;99.90;;;;;;5016957;28;20034;-61
2023/12/29 05:11:28;;;;;;;18.15;4.57;;;9.30;99.90;;;;;;5035193;28;20052;-61
2023/12/29 05:13:54;;;;;;;19.63;5.13;;;9.30;99.90;;;;;;5015143;28;20041;-61
2023/12/29 05:16:19;;;;;;;17.30;5.03;;;9.30;99.90;;;;;;4997273;28;20080;-61
2023/12/29 05:18:45;;;;;;;13.48;4.40;;;9.30;99.90;;;;;;4998011;28;20053;-61
2023/12/29 05:21:18;;;;;;;19.65;4.80;;;9.20;99.90;;;;;;5017099;28;20051;-61
2023/12/29 05:23:45;;;;;;;20.80;4.05;;;9.30;99.90;;;;;;5016344;28;20083;-61
2023/12/29 05:26:11;;;;;;;16.15;4.35;;;9.30;99.90;;;;;;5000843;28;20482;-61
2023/12/29 05:28:37;;;;;;;24.90;5.25;;;9.30;99.90;;;;;;5017019;28;20123;-62
2023/12/29 05:31:05;;;;;;;14.68;4.40;;;9.30;99.90;;;;;;5016834;28;20041;-61
2023/12/29 05:33:31;;;;;;;12.40;4.03;;;9.30;99.90;;;;;;5016800;28;20037;-61
2023/12/29 05:35:57;;;;;;;15.52;5.05;;;9.40;99.90;;;;;;5017290;28;20092;-61
2023/12/29 05:38:23;;;;;;;20.65;4.38;;;9.30;99.90;;;;;;5016428;28;20442;-61
2023/12/29 05:40:50;;;;;;;19.10;5.05;;;9.30;99.90;;;;;;5017174;28;20084;-62
2023/12/29 05:43:16;;;;;;;18.73;4.75;;;9.40;99.90;;;;;;5000737;28;20494;-61
2023/12/29 05:45:41;;;;;;;21.15;5.05;;;9.30;99.90;;;;;;5016190;28;20042;-61
2023/12/29 05:48:07;;;;;;;15.73;4.05;;;9.30;99.90;;;;;;5017270;28;20037;-61
2023/12/29 05:50:33;;;;;;;17.77;5.50;;;9.30;99.90;;;;;;5026683;28;20050;-61
2023/12/29 05:52:59;;;;;;;21.95;4.65;;;9.30;99.90;;;;;;4996525;28;20372;-62
2023/12/29 05:55:25;;;;;;;24.75;6.28;;;9.30;99.90;;;;;;4996996;28;20053;-62
2023/12/29 05:57:50;;;;;;;16.48;4.03;;;9.30;99.90;;;;;;4996005;28;20037;-62
2023/12/29 06:00:16;;;;;;;18.50;5.45;;;9.30;99.90;;;;;;4996416;28;20049;-62
2023/12/29 06:02:43;;;;;;;14.80;5.80;;;9.30;99.90;;;;;;5019316;28;20490;-61
2023/12/29 06:05:11;;;;;;;15.30;5.03;;;9.30;99.90;;;;;;5016473;28;20144;-61
2023/12/29 06:07:38;;;;;;;17.52;5.35;;;9.40;99.90;;;;;;5016440;28;20432;-61
2023/12/29 06:10:04;;;;;;;16.90;4.57;;;9.30;99.90;;;;;;5016632;28;20046;-61
2023/12/29 06:12:30;;;;;;;14.18;3.78;;;9.30;99.90;;;;;;5015291;28;20051;-61
2023/12/29 06:14:56;;;;;;;23.13;4.05;;;9.40;99.90;;;;;;5016505;28;20045;-61
2023/12/29 06:17:21;;;;;;;15.55;5.15;;;9.40;99.90;;;;;;5016318;28;20163;-61
2023/12/29 06:19:47;;;;;;;21.08;4.90;;;9.40;99.90;;;;;;5015361;28;20049;-62
2023/12/29 06:22:14;;;;;;;21.35;5.00;;;9.40;99.90;;;;;;5035393;28;20053;-62
2023/12/29 06:24:40;;;;;;;14.75;4.63;;;9.50;99.90;;;;;;5035962;28;20045;-62
2023/12/29 06:27:08;;;;;;;22.10;5.22;;;9.40;99.90;;;;;;5053067;28;20143;-62
2023/12/29 06:29:33;;;;;;;21.38;4.68;;;9.40;99.90;;;;;;5052447;28;20080;-62
2023/12/29 06:31:59;;;;;;;25.63;5.95;;;9.40;99.90;;;;;;5035921;28;20068;-62
2023/12/29 06:34:25;;;;;;;20.30;5.38;;;9.40;99.90;;;;;;5052684;28;20036;-62
2023/12/29 06:36:51;;;;;;;20.08;4.28;;;9.40;99.90;;;;;;5035554;28;20065;-62
2023/12/29 06:39:16;;;;;;;19.58;4.53;;;9.40;99.90;;;;;;5053504;28;20080;-61
2023/12/29 06:41:42;;;;;;;13.65;4.40;;;9.40;99.90;;;;;;5051285;28;20041;-61
2023/12/29 06:44:08;;;;;;;20.63;4.85;;;9.40;99.90;;;;;;5035557;28;20048;-62
2023/12/29 06:46:34;;;;;;;22.05;5.03;;;9.50;99.90;;;;;;5035515;28;20037;-61
2023/12/29 06:48:59;;;;;;;16.27;5.40;;;9.40;99.90;;;;;;5051450;28;20491;-62
2023/12/29 06:51:25;;;;;;;14.48;4.60;;;9.50;99.90;;;;;;5033409;28;20041;-62
2023/12/29 06:53:51;;;;;;;15.52;4.43;;;9.50;99.90;;;;;;5015569;28;20041;-61
2023/12/29 06:56:17;;;;;;;23.67;6.68;;;9.50;99.90;;;;;;5014716;28;20056;-61
2023/12/29 06:58:44;;;;;;;16.55;6.00;;;9.50;99.90;;;;;;5015483;28;20049;-62
2023/12/29 07:01:10;;;;;;;20.75;5.97;;;9.50;99.90;;;;;;5015550;28;20505;-61
2023/12/29 07:03:35;;;;;;;22.15;5.97;;;9.50;99.90;;;;;;5019621;28;20057;-61
2023/12/29 07:06:02;;;;;;;15.85;4.93;;;9.40;99.90;;;;;;5014989;28;20049;-61
2023/12/29 07:08:28;;;;;;;17.98;4.82;;;9.40;99.90;;;;;;5014612;28;20583;-61
2023/12/29 07:10:53;;;;;;;15.35;5.68;;;9.40;99.90;;;;;;5014652;28;20042;-61
2023/12/29 07:13:19;;;;;;;20.10;5.45;;;9.40;99.90;;;;;;5015238;28;20039;-61
2023/12/29 07:15:46;;;;;;;15.88;5.22;;;9.40;99.90;;;;;;4997944;28;20080;-61
2023/12/29 07:18:12;;;;;;;18.80;4.80;;;9.40;99.90;;;;;;5015179;28;20495;-61
2023/12/29 07:20:37;;;;;;;13.77;4.25;;;9.40;99.90;;;;;;5015029;28;20048;-63
2023/12/29 07:23:03;;;;;;;30.00;4.05;;;9.40;99.90;;;;;;5014527;28;20049;-62
2023/12/29 07:25:29;;;;;;;13.60;4.63;;;9.40;99.90;;;;;;5014921;28;20046;-61
2023/12/29 07:27:55;;;;;;;10.40;3.55;;;9.40;99.90;;;;;;5033003;28;20055;-61
2023/12/29 07:30:20;;;;;;;13.48;4.82;;;9.40;99.90;;;;;;5014050;28;20087;-61
2023/12/29 07:32:46;;;;;;;15.90;4.28;;;9.40;99.90;;;;;;5014884;28;20045;-61
2023/12/29 07:35:15;;;;;;;11.27;3.25;;;9.40;99.90;;;;;;5006169;28;20046;-62
2023/12/29 07:37:40;;;;;;;16.40;4.80;;;9.40;99.90;;;;;;5007651;28;20120;-62
2023/12/29 07:40:08;;;;;;;17.13;4.95;;;9.40;99.90;;;;;;5001385;28;20169;-62
2023/12/29 07:42:33;;;;;;;21.00;4.10;;;9.40;99.90;;;;;;5009913;28;20090;-62
2023/12/29 07:44:59;;;;;;;16.48;4.80;;;9.40;99.90;;;;;;5013767;28;20120;-61
2023/12/29 07:47:25;;;;;;;16.02;3.90;;;9.30;99.90;;;;;;5014424;28;20057;-61
2023/12/29 07:49:51;;;;;;;17.05;4.80;;;9.30;99.90;;;;;;5014487;28;20494;-61
2023/12/29 07:52:17;;;;;;;18.02;4.53;;;9.30;99.90;;;;;;5006149;28;20045;-61
2023/12/29 07:54:42;;;;;;;11.57;3.78;;;9.30;99.90;;;;;;5012009;28;20042;-61
2023/12/29 07:57:08;;;;;;;20.38;5.28;;;9.30;99.90;;;;;;5013900;28;20049;-62
2023/12/29 07:59:34;;;;;;;16.88;5.00;;;9.30;99.90;;;;;;5013092;28;20069;-62
2023/12/29 08:01:59;;;;;;;13.13;3.72;;;9.30;99.90;;;;;;5013938;28;20045;-62
2023/12/29 08:04:25;;;;;;;11.63;4.25;;;9.30;99.90;;;;;;5032606;28;20052;-63
2023/12/29 08:06:51;;;;;;;16.55;7.53;;;9.30;99.90;;;;;;5012521;28;20491;-61
2023/12/29 08:09:16;;;;;;;16.50;3.85;;;9.30;99.90;;;;;;5015198;28;20154;-61
2023/12/29 08:11:43;;;;;;;12.38;4.13;;;9.30;99.90;;;;;;5013683;28;20033;-62
2023/12/29 08:14:08;;;;;;;15.27;4.13;;;9.30;99.90;;;;;;5013401;28;20045;-62
2023/12/29 08:16:41;;;;;;;9.25;4.13;;;9.30;99.90;;;;;;5013603;28;20514;-62
2023/12/29 08:19:07;;;;;;;17.80;6.32;;;9.30;99.90;;;;;;5013464;28;20558;-62
2023/12/29 08:21:33;;;;;;;56.22;28.92;;;9.30;99.90;;;;;;5022614;28;20073;-61
2023/12/29 08:23:58;;;;;;;20.52;8.27;;;9.30;99.90;;;;;;5014100;28;20079;-62
2023/12/29 08:26:24;;;;;;;21.27;7.32;;;9.30;99.90;;;;;;5012869;28;20423;-62
2023/12/29 08:28:50;;;;;;;25.58;8.02;;;9.30;99.90;;;;;;5014125;28;20041;-61
2023/12/29 08:31:16;;;;;;;18.15;5.38;;;9.30;99.90;;;;;;5014367;28;20081;-62
2023/12/29 08:33:42;;;;;;;19.40;5.10;;;9.40;99.90;;;;;;5013456;28;20101;-62
2023/12/29 08:36:08;;;;;;;20.42;6.18;;;9.40;99.90;;;;;;5014104;28;20038;-62
2023/12/29 08:38:33;;;;;;;22.50;7.88;;;9.30;99.90;;;;;;5032807;28;20041;-62
2023/12/29 08:40:59;;;;;;;20.33;8.35;;;9.30;99.90;;;;;;5028916;28;20037;-62
2023/12/29 08:43:26;;;;;;;105.65;51.70;;;9.30;99.90;;;;;;5022342;28;20045;-61
2023/12/29 08:45:51;;;;;;;28.48;13.25;;;9.20;99.90;;;;;;5034404;28;20048;-61
2023/12/29 08:48:17;;;;;;;19.13;5.30;;;9.20;99.90;;;;;;5029873;28;20043;-61
2023/12/29 08:50:43;;;;;;;35.72;16.33;;;9.20;99.90;;;;;;5024483;28;20116;-61
2023/12/29 08:53:09;;;;;;;9.68;4.22;;;9.20;99.90;;;;;;5005099;28;20160;-61
2023/12/29 08:55:35;;;;;;;20.98;7.38;;;9.20;99.90;;;;;;5011292;28;20045;-61
2023/12/29 08:58:01;;;;;;;129.77;59.40;;;9.20;99.90;;;;;;5010921;28;20131;-61
2023/12/29 09:00:28;;;;;;;38.63;15.15;;;9.20;99.90;;;;;;5011324;28;20064;-61
2023/12/29 09:02:54;;;;;;;39.33;18.02;;;9.20;99.90;;;;;;4997955;28;20409;-61
2023/12/29 09:05:19;;;;;;;35.97;15.27;;;9.20;99.90;;;;;;5031115;28;20053;-60
2023/12/29 09:07:45;;;;;;;15.80;5.72;;;9.20;99.90;;;;;;5047483;28;20124;-61
2023/12/29 09:10:12;;;;;;;19.00;8.30;;;9.30;99.90;;;;;;5045458;28;20045;-61
2023/12/29 09:12:39;;;;;;;21.10;4.90;;;9.30;99.90;;;;;;5010783;28;20971;-61
2023/12/29 09:15:06;;;;;;;10.90;4.80;;;9.30;99.90;;;;;;5027560;28;20072;-61
2023/12/29 09:17:31;;;;;;;15.68;4.60;;;9.40;99.90;;;;;;5008950;28;20084;-61
2023/12/29 09:19:57;;;;;;;18.00;3.72;;;9.40;99.90;;;;;;5011014;28;20081;-61
2023/12/29 09:22:22;;;;;;;14.35;3.85;;;9.40;99.90;;;;;;5015852;28;20572;-61
2023/12/29 09:24:48;;;;;;;18.67;4.03;;;9.40;99.90;;;;;;5021788;28;20079;-61
2023/12/29 09:27:14;;;;;;;15.32;3.85;;;9.40;99.90;;;;;;5010300;28;20041;-61
2023/12/29 09:29:40;;;;;;;21.15;4.32;;;9.40;99.90;;;;;;5012524;28;20127;-61
2023/12/29 09:32:06;;;;;;;22.50;4.68;;;9.40;99.90;;;;;;5030033;28;20132;-61
2023/12/29 09:34:31;;;;;;;15.40;4.07;;;9.40;99.90;;;;;;5016196;28;20132;-61
2023/12/29 09:36:57;;;;;;;24.23;5.57;;;9.40;99.90;;;;;;5033169;28;20048;-61
2023/12/29 09:39:23;;;;;;;12.73;4.38;;;9.40;99.90;;;;;;5033220;28;20045;-61
2023/12/29 09:41:52;;;;;;;12.98;3.45;;;9.40;99.90;;;;;;5008023;28;20136;-61
2023/12/29 09:44:20;;;;;;;13.27;3.88;;;9.40;99.90;;;;;;5012174;28;20045;-61
2023/12/29 09:46:53;;;;;;;13.27;3.72;;;9.40;99.90;;;;;;5003078;28;20512;-62
2023/12/29 09:49:19;;;;;;;22.00;4.40;;;9.40;99.90;;;;;;5033566;28;20047;-61
2023/12/29 09:51:45;;;;;;;19.65;4.70;;;9.50;99.90;;;;;;5032076;28;20037;-62
2023/12/29 09:54:13;;;;;;;23.73;6.47;;;9.50;99.90;;;;;;5020048;28;20096;-62
2023/12/29 09:56:39;;;;;;;20.27;4.30;;;9.50;99.90;;;;;;5031567;28;20056;-62
2023/12/29 09:59:06;;;;;;;21.45;4.60;;;9.50;99.90;;;;;;5014479;28;20060;-62
2023/12/29 10:01:33;;;;;;;13.43;3.63;;;9.50;99.90;;;;;;5023579;28;20408;-61
2023/12/29 10:03:59;;;;;;;12.38;3.35;;;9.50;99.90;;;;;;5032436;28;20504;-61
2023/12/29 10:06:25;;;;;;;15.82;4.20;;;9.50;99.90;;;;;;5024311;28;20049;-62
2023/12/29 10:08:52;;;;;;;15.07;4.80;;;9.60;99.90;;;;;;5002209;28;20095;-61
2023/12/29 10:11:21;;;;;;;19.40;4.13;;;9.50;99.90;;;;;;5033284;28;20227;-61
2023/12/29 10:13:50;;;;;;;15.15;4.20;;;9.60;99.90;;;;;;5021187;28;20052;-61
2023/12/29 10:16:28;;;;;;;17.98;4.70;;;9.60;99.90;;;;;;5025028;28;20045;-62
2023/12/29 10:19:32;;;;;;;14.65;4.28;;;9.60;99.90;;;;;;5032873;28;20048;-61
2023/12/29 10:22:10;;;;;;;23.83;7.18;;;9.60;99.90;;;;;;5010968;28;20052;-61
2023/12/29 10:24:36;;;;;;;19.38;4.95;;;9.60;99.90;;;;;;5031643;28;20044;-61
2023/12/29 10:27:02;;;;;;;12.50;3.70;;;9.60;99.90;;;;;;5035224;28;20521;-61
2023/12/29 10:29:28;;;;;;;13.85;2.85;;;9.60;99.90;;;;;;5034947;28;20042;-61
2023/12/29 10:31:53;;;;;;;14.65;4.05;;;9.50;99.90;;;;;;5034692;28;20041;-61
2023/12/29 10:34:31;;;;;;;16.52;4.30;;;9.50;99.90;;;;;;5030421;28;20131;-61
2023/12/29 10:37:08;;;;;;;12.93;3.20;;;9.50;99.90;;;;;;5036201;28;20041;-61
2023/12/29 10:39:36;;;;;;;16.15;4.05;;;9.50;99.90;;;;;;5033150;28;20497;-60
2023/12/29 10:42:09;;;;;;;16.52;4.38;;;9.50;99.90;;;;;;5032022;28;20518;-61
2023/12/29 10:44:36;;;;;;;11.30;2.75;;;9.50;99.90;;;;;;5032028;28;20514;-61
2023/12/29 10:47:09;;;;;;;11.93;2.47;;;9.50;99.90;;;;;;5018344;28;20052;-61
2023/12/29 10:49:35;;;;;;;11.43;3.30;;;9.60;99.90;;;;;;5026894;28;20414;-61
2023/12/29 10:52:12;;;;;;;9.05;2.10;;;9.50;99.90;;;;;;5018727;28;20409;-61
2023/12/29 10:54:38;;;;;;;8.05;2.72;;;9.50;99.90;;;;;;5014051;28;20103;-61
2023/12/29 10:57:04;;;;;;;12.00;3.88;;;9.50;99.90;;;;;;5032112;28;20474;-61
2023/12/29 10:59:29;;;;;;;12.73;2.70;;;9.50;99.90;;;;;;5018340;28;20041;-63
2023/12/29 11:01:56;;;;;;;11.55;2.60;;;9.50;99.90;;;;;;5025726;28;20052;-63
2023/12/29 11:04:22;;;;;;;9.02;2.20;;;9.50;99.90;;;;;;5029828;28;20055;-63
2023/12/29 11:06:50;;;;;;;15.32;3.42;;;9.50;99.90;;;;;;5015398;28;20064;-63
2023/12/29 11:09:36;;;;;;;9.43;3.35;;;9.40;99.90;;;;;;5018286;28;20104;-63
2023/12/29 11:12:08;;;;;;;17.92;3.22;;;9.40;99.90;;;;;;5025668;28;20037;-63
2023/12/29 11:14:34;;;;;;;9.65;2.20;;;9.40;99.90;;;;;;5033463;28;20056;-64
2023/12/29 11:17:00;;;;;;;12.02;3.65;;;9.40;99.90;;;;;;5028305;28;20040;-63
2023/12/29 11:19:27;;;;;;;16.35;3.80;;;9.50;99.90;;;;;;5048683;28;20037;-63
2023/12/29 11:21:56;;;;;;;12.43;3.22;;;9.50;99.90;;;;;;5033428;28;20069;-62
2023/12/29 11:24:22;;;;;;;11.02;2.83;;;9.50;99.90;;;;;;5027721;28;20082;-63
2023/12/29 11:26:52;;;;;;;14.95;4.20;;;9.50;99.90;;;;;;5033597;28;20094;-63
2023/12/29 11:29:18;;;;;;;9.73;3.33;;;9.50;99.90;;;;;;5033588;28;20044;-63
2023/12/29 11:31:48;;;;;;;16.00;4.15;;;9.50;99.90;;;;;;5030492;28;20047;-63
2023/12/29 11:34:23;;;;;;;13.98;3.30;;;9.50;99.90;;;;;;5018952;28;20094;-62
2023/12/29 11:36:55;;;;;;;16.15;3.35;;;9.50;99.90;;;;;;5033422;28;20051;-63
2023/12/29 11:39:46;;;;;;;15.88;3.47;;;9.50;99.90;;;;;;5029697;28;20056;-63
2023/12/29 11:42:22;;;;;;;12.52;3.17;;;9.60;99.90;;;;;;5020913;28;20041;-62
2023/12/29 11:44:48;;;;;;;10.75;3.67;;;9.70;99.90;;;;;;5018556;28;20409;-63
2023/12/29 11:47:37;;;;;;;14.07;3.13;;;9.70;99.90;;;;;;5044651;28;20457;-63
2023/12/29 11:50:03;;;;;;;9.40;2.33;;;9.80;99.90;;;;;;5043951;28;20047;-62
2023/12/29 11:52:37;;;;;;;11.38;3.38;;;9.90;99.90;;;;;;5032556;28;20068;-62
2023/12/29 11:55:09;;;;;;;12.68;3.60;;;9.90;99.90;;;;;;5017683;28;20049;-63
2023/12/29 11:57:36;;;;;;;11.80;2.58;;;9.90;99.90;;;;;;5016343;28;20118;-62
2023/12/29 12:00:06;;;;;;;13.10;3.58;;;10.00;99.90;;;;;;5031567;28;20437;-63
2023/12/29 12:02:32;;;;;;;15.32;3.85;;;10.00;99.90;;;;;;4997382;28;20499;-63
2023/12/29 12:04:58;;;;;;;14.48;3.70;;;10.00;99.90;;;;;;5013553;28;20057;-63
2023/12/29 12:07:23;;;;;;;11.02;3.50;;;10.00;99.90;;;;;;5013750;28;20077;-63
2023/12/29 12:09:50;;;;;;;20.50;4.97;;;10.10;99.90;;;;;;5025182;28;20087;-62
2023/12/29 12:12:42;;;;;;;10.43;3.97;;;10.00;99.90;;;;;;5028212;28;20049;-62
2023/12/29 12:15:26;;;;;;;11.88;3.65;;;10.00;99.90;;;;;;5010847;28;20048;-62
2023/12/29 12:17:52;;;;;;;22.83;7.10;;;9.90;99.90;;;;;;4994702;28;20049;-63
2023/12/29 12:20:18;;;;;;;13.65;3.60;;;9.80;99.90;;;;;;5010573;28;20159;-62
2023/12/29 12:22:45;;;;;;;18.88;4.25;;;9.80;99.90;;;;;;5010902;28;20500;-63
2023/12/29 12:25:15;;;;;;;12.05;2.85;;;9.70;99.90;;;;;;5009880;28;20052;-62
2023/12/29 12:27:41;;;;;;;13.82;3.50;;;9.80;99.90;;;;;;5010776;28;20081;-62
2023/12/29 12:30:09;;;;;;;12.38;3.38;;;9.70;99.90;;;;;;5014162;28;20128;-63
2023/12/29 12:32:35;;;;;;;15.98;3.67;;;9.60;99.90;;;;;;5029996;28;20084;-62
2023/12/29 12:35:01;;;;;;;12.52;3.03;;;9.50;99.90;;;;;;5030932;28;20102;-63
2023/12/29 12:37:28;;;;;;;12.88;4.13;;;9.40;99.90;;;;;;5046040;28;20040;-63
2023/12/29 12:39:55;;;;;;;11.38;3.25;;;9.30;99.90;;;;;;5030253;28;20394;-60
2023/12/29 12:42:22;;;;;;;11.27;3.03;;;9.20;99.90;;;;;;5030228;28;20049;-61
2023/12/29 12:44:56;;;;;;;13.00;3.30;;;9.20;99.90;;;;;;5030704;28;20437;-60